createdAt,value
2024-03-03T00:00:47.916Z,18.00
2024-03-03T00:05:17.839Z,17.00
2024-03-03T00:09:25.868Z,19.70
2024-03-03T00:13:34.220Z,19.30
2024-03-03T00:17:42.619Z,19.40
2024-03-03T00:21:50.846Z,19.40
2024-03-03T00:25:58.523Z,19.60
2024-03-03T00:30:06.550Z,36.60
2024-03-03T00:34:14.645Z,47.30
2024-03-03T00:38:22.716Z,21.80
2024-03-03T00:42:30.847Z,22.00
2024-03-03T00:46:39.094Z,21.70
2024-03-03T00:50:47.183Z,22.50
2024-03-03T00:54:55.174Z,21.00
2024-03-03T00:59:03.428Z,22.70
2024-03-03T01:03:11.249Z,21.80
2024-03-03T01:07:19.227Z,21.60
2024-03-03T01:11:28.066Z,22.10
2024-03-03T01:15:35.750Z,22.60
2024-03-03T01:19:43.764Z,21.00
2024-03-03T01:23:52.622Z,21.20
2024-03-03T01:28:00.365Z,21.40
2024-03-03T01:32:10.149Z,23.30
2024-03-03T01:36:17.906Z,23.20
2024-03-03T01:40:26.912Z,21.70
2024-03-03T01:44:35.216Z,22.30
2024-03-03T01:48:43.863Z,22.90
2024-03-03T01:52:52.727Z,24.00
2024-03-03T01:57:02.030Z,24.30
2024-03-03T02:01:10.699Z,23.80
2024-03-03T02:05:19.218Z,23.20
2024-03-03T02:09:28.079Z,21.60
2024-03-03T02:13:35.895Z,24.70
2024-03-03T02:17:44.085Z,24.60
2024-03-03T02:21:51.576Z,25.80
2024-03-03T02:25:59.792Z,25.00
2024-03-03T02:30:09.524Z,23.70
2024-03-03T02:34:17.256Z,22.50
2024-03-03T02:38:25.548Z,24.90
2024-03-03T02:42:36.359Z,24.20
2024-03-03T02:46:44.683Z,26.10
2024-03-03T02:50:52.860Z,26.50
2024-03-03T02:55:00.640Z,23.70
2024-03-03T02:59:08.736Z,24.00
2024-03-03T03:03:17.759Z,23.70
2024-03-03T03:07:26.009Z,24.80
2024-03-03T03:11:34.428Z,26.50
2024-03-03T03:15:42.409Z,25.30
2024-03-03T03:19:50.996Z,23.70
2024-03-03T03:23:58.858Z,26.90
2024-03-03T03:28:08.519Z,26.50
2024-03-03T03:32:16.083Z,30.20
2024-03-03T03:36:23.737Z,27.90
2024-03-03T03:40:41.341Z,28.30
2024-03-03T03:44:49.360Z,27.10
2024-03-03T03:48:57.146Z,27.00
2024-03-03T03:53:04.763Z,27.30
2024-03-03T03:57:12.954Z,29.00
2024-03-03T04:01:22.798Z,28.30
2024-03-03T04:05:31.020Z,27.80
2024-03-03T04:09:38.811Z,28.70
2024-03-03T04:13:47.457Z,28.70
2024-03-03T04:17:55.402Z,31.00
2024-03-03T04:22:02.946Z,29.30
2024-03-03T04:26:11.870Z,26.80
2024-03-03T04:30:19.820Z,26.80
2024-03-03T04:34:30.918Z,26.70
2024-03-03T04:38:41.690Z,27.70
2024-03-03T04:42:50.867Z,28.30
2024-03-03T04:46:58.817Z,24.90
2024-03-03T04:51:07.815Z,25.60
2024-03-03T04:55:16.164Z,26.60
2024-03-03T04:59:24.176Z,28.40
2024-03-03T05:03:32.887Z,25.60
2024-03-03T05:07:40.793Z,24.80
2024-03-03T05:11:48.595Z,23.10
2024-03-03T05:15:56.439Z,23.30
2024-03-03T05:20:04.091Z,22.60
2024-03-03T05:24:11.954Z,23.20
2024-03-03T05:28:19.394Z,20.70
2024-03-03T05:32:27.087Z,20.00
2024-03-03T05:36:38.276Z,20.00
2024-03-03T05:40:46.237Z,18.00
2024-03-03T05:44:54.675Z,18.70
2024-03-03T05:49:03.780Z,16.90
2024-03-03T05:53:11.620Z,14.70
2024-03-03T05:57:19.157Z,12.10
2024-03-03T06:01:26.450Z,11.30
2024-03-03T06:05:34.695Z,10.90
2024-03-03T06:09:43.405Z,13.60
2024-03-03T06:13:51.371Z,13.20
2024-03-03T06:17:59.011Z,12.90
2024-03-03T06:22:09.960Z,11.40
2024-03-03T06:26:20.629Z,11.00
2024-03-03T06:30:30.925Z,10.60
2024-03-03T06:34:39.719Z,12.20
2024-03-03T06:38:47.165Z,12.30
2024-03-03T06:42:56.598Z,11.20
2024-03-03T06:47:04.227Z,10.90
2024-03-03T06:51:12.710Z,9.60
2024-03-03T06:55:20.682Z,9.70
2024-03-03T06:59:28.744Z,11.40
2024-03-03T07:04:09.488Z,10.70
2024-03-03T07:08:17.657Z,10.10
2024-03-03T07:12:25.320Z,10.00
2024-03-03T07:16:33.949Z,9.10
2024-03-03T07:20:41.944Z,9.70
2024-03-03T07:24:50.696Z,10.80
2024-03-03T07:28:58.324Z,10.90
2024-03-03T07:33:06.858Z,10.50
2024-03-03T07:37:14.776Z,9.10
2024-03-03T07:41:23.278Z,10.20
2024-03-03T07:45:30.842Z,9.90
2024-03-03T07:49:38.945Z,9.30
2024-03-03T07:53:50.586Z,10.60
2024-03-03T07:57:58.809Z,10.40
2024-03-03T08:02:07.909Z,9.90
2024-03-03T08:06:16.016Z,9.50
2024-03-03T08:10:23.984Z,10.90
2024-03-03T08:14:31.732Z,10.10
2024-03-03T08:18:39.551Z,11.90
2024-03-03T08:22:47.324Z,11.10
2024-03-03T08:26:54.873Z,10.60
2024-03-03T08:31:03.042Z,10.40
2024-03-03T08:35:12.066Z,10.60
2024-03-03T08:39:21.467Z,10.80
2024-03-03T08:43:29.546Z,12.70
2024-03-03T08:47:37.945Z,13.00
2024-03-03T08:51:47.070Z,12.10
2024-03-03T08:55:55.503Z,11.80
2024-03-03T09:00:04.631Z,12.00
2024-03-03T09:04:14.099Z,12.30
2024-03-03T09:08:21.620Z,11.70
2024-03-03T09:12:30.261Z,11.80
2024-03-03T09:16:39.201Z,11.50
2024-03-03T09:20:46.815Z,11.30
2024-03-03T09:24:54.809Z,10.30
2024-03-03T09:29:03.236Z,10.10
2024-03-03T09:33:12.195Z,9.70
2024-03-03T09:37:20.767Z,10.20
2024-03-03T09:41:28.571Z,10.30
2024-03-03T09:45:36.199Z,10.00
2024-03-03T09:49:45.548Z,9.00
2024-03-03T09:53:52.960Z,10.20
2024-03-03T09:58:02.406Z,8.80
2024-03-03T10:02:16.668Z,9.20
2024-03-03T10:06:26.149Z,9.40
2024-03-03T10:10:37.540Z,9.90
2024-03-03T10:14:46.082Z,8.80
2024-03-03T10:19:11.294Z,8.20
2024-03-03T10:23:25.973Z,7.80
2024-03-03T10:27:33.561Z,8.40
2024-03-03T10:31:41.286Z,9.30
2024-03-03T10:35:50.206Z,8.20
2024-03-03T10:39:58.584Z,8.50
2024-03-03T10:44:07.293Z,8.00
2024-03-03T10:48:14.812Z,7.80
2024-03-03T10:52:22.213Z,8.00
2024-03-03T10:56:30.511Z,8.30
2024-03-03T11:00:38.865Z,8.20
2024-03-03T11:04:47.132Z,8.30
2024-03-03T11:08:54.642Z,8.60
2024-03-03T11:13:05.267Z,7.70
2024-03-03T11:17:17.544Z,6.90
2024-03-03T11:21:31.209Z,6.70
2024-03-03T11:25:45.612Z,7.00
2024-03-03T11:29:53.973Z,7.40
2024-03-03T11:34:04.141Z,7.50
2024-03-03T11:38:13.637Z,7.10
2024-03-03T11:42:30.799Z,7.70
2024-03-03T11:46:51.395Z,7.60
2024-03-03T11:51:28.585Z,6.60
2024-03-03T11:55:39.741Z,6.90
2024-03-03T11:59:49.277Z,6.70
2024-03-03T12:03:57.999Z,7.20
2024-03-03T12:08:09.832Z,6.60
2024-03-03T12:12:17.472Z,6.80
2024-03-03T12:16:34.759Z,6.40
2024-03-03T12:20:45.526Z,5.80
2024-03-03T12:25:00.757Z,6.00
2024-03-03T12:29:10.465Z,7.70
2024-03-03T12:33:19.973Z,7.50
2024-03-03T12:37:29.903Z,6.20
2024-03-03T12:41:37.508Z,6.80
2024-03-03T12:45:48.425Z,6.80
2024-03-03T12:49:56.565Z,6.20
2024-03-03T12:54:05.507Z,6.30
2024-03-03T12:58:14.501Z,6.50
2024-03-03T13:02:22.108Z,6.80
2024-03-03T13:06:31.612Z,6.70
2024-03-03T13:10:40.747Z,5.80
2024-03-03T13:14:53.214Z,6.30
2024-03-03T13:19:05.703Z,6.70
2024-03-03T13:23:16.255Z,6.90
2024-03-03T13:27:23.597Z,6.60
2024-03-03T13:31:31.025Z,6.50
2024-03-03T13:35:40.099Z,5.90
2024-03-03T13:39:47.932Z,6.50
2024-03-03T13:43:55.705Z,6.50
2024-03-03T13:48:06.865Z,6.70
2024-03-03T13:52:15.349Z,6.80
2024-03-03T13:56:23.059Z,6.70
2024-03-03T14:00:31.166Z,6.60
2024-03-03T14:04:38.932Z,6.70
2024-03-03T14:08:47.301Z,7.20
2024-03-03T14:12:55.406Z,7.10
2024-03-03T14:17:03.563Z,6.60
2024-03-03T14:21:11.715Z,7.90
2024-03-03T14:25:19.908Z,7.90
2024-03-03T14:29:27.602Z,8.30
2024-03-03T14:33:35.736Z,7.10
2024-03-03T14:37:43.198Z,6.30
2024-03-03T14:41:51.397Z,6.60
2024-03-03T14:45:59.962Z,7.60
2024-03-03T14:50:10.338Z,7.40
2024-03-03T14:54:18.439Z,7.50
2024-03-03T14:58:26.488Z,6.50
2024-03-03T15:02:34.106Z,7.30
2024-03-03T15:06:41.944Z,7.60
2024-03-03T15:10:50.004Z,7.10
2024-03-03T15:14:59.333Z,5.50
2024-03-03T15:19:07.755Z,6.00
2024-03-03T15:23:15.809Z,6.90
2024-03-03T15:27:23.981Z,6.00
2024-03-03T15:31:32.086Z,5.30
2024-03-03T15:35:40.070Z,5.40
2024-03-03T15:39:47.853Z,5.10
2024-03-03T15:43:55.852Z,5.60
2024-03-03T15:48:05.457Z,5.10
2024-03-03T15:52:15.764Z,5.90
2024-03-03T15:56:23.811Z,5.60
2024-03-03T16:00:31.914Z,5.90
2024-03-03T16:04:39.682Z,6.00
2024-03-03T16:08:47.440Z,5.20
2024-03-03T16:12:55.439Z,5.20
2024-03-03T16:17:05.079Z,6.00
2024-03-03T16:21:13.080Z,6.10
2024-03-03T16:25:20.642Z,5.30
2024-03-03T16:29:28.460Z,6.00
2024-03-03T16:33:36.118Z,5.40
2024-03-03T16:37:44.436Z,5.80
2024-03-03T16:41:53.473Z,6.70
2024-03-03T16:46:01.637Z,6.20
2024-03-03T16:50:10.942Z,6.20
2024-03-03T16:54:20.123Z,6.60
2024-03-03T16:58:28.390Z,5.90
2024-03-03T17:02:36.277Z,6.20
2024-03-03T17:06:47.085Z,6.20
2024-03-03T17:10:55.478Z,6.40
2024-03-03T17:15:10.894Z,6.40
2024-03-03T17:24:01.228Z,5.90
2024-03-03T17:28:09.739Z,5.90
2024-03-03T17:32:17.545Z,5.70
2024-03-03T17:36:26.393Z,6.80
2024-03-03T17:40:35.221Z,7.30
2024-03-03T17:44:43.275Z,7.10
2024-03-03T17:48:51.367Z,6.90
2024-03-03T17:52:59.045Z,6.60
2024-03-03T17:57:07.622Z,6.40
2024-03-03T18:01:15.421Z,7.10
2024-03-03T18:05:24.973Z,7.60
2024-03-03T18:09:33.816Z,7.60
2024-03-03T18:13:41.871Z,8.60
2024-03-03T18:17:49.961Z,8.70
2024-03-03T18:21:58.262Z,9.10
2024-03-03T18:26:06.865Z,9.20
2024-03-03T18:30:17.234Z,9.60
2024-03-03T18:34:25.164Z,10.00
2024-03-03T18:38:33.510Z,10.50
2024-03-03T18:42:47.141Z,10.10
2024-03-03T18:46:57.300Z,9.10
2024-03-03T18:51:06.839Z,9.90
2024-03-03T18:55:15.420Z,9.30
2024-03-03T18:59:23.976Z,10.90
2024-03-03T19:03:31.658Z,10.70
2024-03-03T19:07:40.475Z,10.40
2024-03-03T19:11:48.508Z,10.50
2024-03-03T19:15:57.126Z,10.60
2024-03-03T19:20:05.673Z,9.90
2024-03-03T19:24:13.737Z,9.60
2024-03-03T19:28:23.952Z,10.70
2024-03-03T19:32:33.198Z,12.00
2024-03-03T19:36:41.004Z,12.00
2024-03-03T19:40:51.174Z,12.10
2024-03-03T19:44:59.430Z,12.60
2024-03-03T19:49:08.222Z,13.50
2024-03-03T19:53:15.945Z,12.70
2024-03-03T19:57:23.637Z,12.50
2024-03-03T20:01:31.624Z,10.40
2024-03-03T20:05:39.961Z,9.80
2024-03-03T20:09:48.926Z,10.50
2024-03-03T20:13:57.083Z,10.30
2024-03-03T20:18:05.717Z,10.40
2024-03-03T20:22:13.491Z,10.20
2024-03-03T20:26:21.544Z,11.00
2024-03-03T20:30:29.466Z,10.60
2024-03-03T20:34:37.257Z,10.70
2024-03-03T20:38:48.814Z,12.20
2024-03-03T20:42:56.750Z,12.70
2024-03-03T20:47:05.077Z,13.30
2024-03-03T20:51:15.529Z,14.40
2024-03-03T20:55:23.807Z,13.50
2024-03-03T20:59:32.049Z,13.20
2024-03-03T21:03:40.525Z,13.40
2024-03-03T21:07:49.161Z,13.10
2024-03-03T21:11:57.030Z,13.20
2024-03-03T21:16:05.719Z,12.50
2024-03-03T21:20:15.160Z,12.00
2024-03-03T21:24:23.006Z,12.40
2024-03-03T21:28:31.502Z,12.40
2024-03-03T21:32:39.161Z,12.20
2024-03-03T21:36:47.116Z,12.80
2024-03-03T21:40:54.690Z,12.50
2024-03-03T21:45:02.845Z,12.10
2024-03-03T21:49:10.664Z,13.00
2024-03-03T21:53:19.103Z,12.30
2024-03-03T21:57:26.338Z,11.80
2024-03-03T22:01:36.245Z,11.80
2024-03-03T22:05:44.927Z,12.70
2024-03-03T22:09:53.314Z,12.00
2024-03-03T22:14:00.912Z,12.10
2024-03-03T22:18:12.896Z,11.90
2024-03-03T22:22:21.407Z,12.20
2024-03-03T22:26:31.058Z,11.50
2024-03-03T22:30:39.769Z,11.50
2024-03-03T22:34:47.603Z,12.30
2024-03-03T22:38:55.661Z,12.30
2024-03-03T22:43:03.742Z,12.90
2024-03-03T22:47:11.830Z,13.40
2024-03-03T22:51:20.370Z,12.60
2024-03-03T22:55:28.832Z,13.10
2024-03-03T22:59:37.256Z,12.80
2024-03-03T23:03:48.289Z,12.80
2024-03-03T23:07:56.630Z,12.90
2024-03-03T23:12:05.393Z,12.40
2024-03-03T23:16:13.207Z,13.70
2024-03-03T23:20:21.450Z,12.90
2024-03-03T23:24:29.581Z,12.90
2024-03-03T23:28:39.732Z,12.70
2024-03-03T23:32:48.118Z,12.60
2024-03-03T23:36:56.423Z,13.20
2024-03-03T23:41:04.373Z,13.40
2024-03-03T23:45:13.816Z,12.90
2024-03-03T23:49:21.875Z,12.70
2024-03-03T23:53:30.723Z,12.60
2024-03-03T23:57:39.638Z,12.80
